Time;durP1;ratioP1;P1;durP2;ratioP2;P2;SDS_P1;SDS_P2;PMS_P1;PMS_P2;Temp;Humidity;BMP_temperature;BMP_pressure;BME280_temperature;BME280_humidity;BME280_pressure;Samples;Min_cycle;Max_cycle;Signal;HPM_P1;HPM_P2
2022/05/22 00:00:09;;;;;;;5.00;2.70;;;;;;;23.78;38.30;101185.53;5090120;28;20032;-74
2022/05/22 00:02:35;;;;;;;8.23;2.70;;;;;;;23.86;37.96;101191.16;5090234;28;20032;-74
2022/05/22 00:05:01;;;;;;;8.65;3.17;;;;;;;23.66;38.65;101183.13;5087745;28;20027;-74
2022/05/22 00:07:27;;;;;;;7.13;2.50;;;;;;;23.70;38.73;101191.50;5114119;28;20529;-74
2022/05/22 00:09:52;;;;;;;8.00;2.90;;;;;;;23.65;38.71;101187.09;5114009;28;20039;-73
2022/05/22 00:12:18;;;;;;;7.53;2.88;;;;;;;23.49;39.23;101186.56;5114185;28;20031;-74
2022/05/22 00:14:44;;;;;;;10.35;3.60;;;;;;;23.59;38.90;101177.47;5084968;28;20078;-74
2022/05/22 00:17:10;;;;;;;11.93;3.63;;;;;;;23.55;39.21;101176.66;5093379;28;20028;-74
2022/05/22 00:19:37;;;;;;;9.45;3.10;;;;;;;23.51;39.46;101179.44;5093390;28;20031;-75
2022/05/22 00:22:03;;;;;;;8.38;3.88;;;;;;;23.59;39.39;101168.31;5093351;28;20024;-74
2022/05/22 00:24:30;;;;;;;10.80;3.88;;;;;;;23.54;39.56;101173.06;5101336;28;20028;-74
2022/05/22 00:26:58;;;;;;;6.75;4.05;;;;;;;23.57;39.33;101181.84;5113649;28;20044;-79
2022/05/22 00:29:24;;;;;;;8.40;2.88;;;;;;;23.61;39.34;101177.13;5113611;28;20085;-74
2022/05/22 00:31:49;;;;;;;7.57;2.65;;;;;;;23.57;39.72;101168.69;5113584;28;20032;-74
2022/05/22 00:34:16;;;;;;;8.60;2.60;;;;;;;23.50;40.00;101168.66;5107559;28;20032;-74
2022/05/22 00:36:42;;;;;;;9.13;3.38;;;;;;;23.61;39.79;101161.19;5074855;28;20039;-73
2022/05/22 00:39:07;;;;;;;6.63;2.85;;;;;;;23.46;40.27;101151.13;5093079;28;20039;-74
2022/05/22 00:41:34;;;;;;;6.18;2.75;;;;;;;23.45;39.92;101149.53;5092948;28;20032;-74
2022/05/22 00:44:02;;;;;;;7.78;3.25;;;;;;;23.51;40.09;101147.97;5095471;28;20036;-74
2022/05/22 00:46:29;;;;;;;10.50;3.65;;;;;;;23.31;40.74;101143.88;5113205;28;20482;-74
2022/05/22 00:49:05;;;;;;;6.72;2.58;;;;;;;23.37;40.27;101143.09;5113072;28;20059;-74
2022/05/22 00:51:36;;;;;;;8.55;3.28;;;;;;;23.34;40.32;101146.66;5113255;28;20042;-73
2022/05/22 00:54:08;;;;;;;7.00;2.80;;;;;;;23.46;40.10;101139.97;5112376;28;20031;-74
2022/05/22 00:56:43;;;;;;;8.15;3.10;;;;;;;23.44;40.46;101142.34;5112825;28;20024;-74
2022/05/22 00:59:14;;;;;;;6.95;3.17;;;;;;;23.45;40.21;101138.38;5113070;28;20034;-74
2022/05/22 01:01:41;;;;;;;8.55;2.88;;;;;;;23.52;40.01;101132.81;5113172;28;20619;-73
2022/05/22 01:04:11;;;;;;;13.07;3.10;;;;;;;23.24;40.56;101139.84;5091338;28;20510;-73
2022/05/22 01:06:37;;;;;;;10.07;3.65;;;;;;;23.44;40.15;101126.41;5092728;28;20089;-73
2022/05/22 01:09:02;;;;;;;7.53;2.83;;;;;;;23.37;40.63;101131.94;5074480;28;20086;-73
2022/05/22 01:11:33;;;;;;;8.10;2.88;;;;;;;23.41;40.26;101134.75;5092454;28;20423;-73
2022/05/22 01:14:07;;;;;;;10.25;3.03;;;;;;;23.49;40.26;101122.44;5075338;28;20044;-74
2022/05/22 01:16:33;;;;;;;6.65;2.60;;;;;;;23.46;40.22;101121.22;5112899;28;20039;-73
2022/05/22 01:18:59;;;;;;;6.93;2.97;;;;;;;23.56;40.41;101116.09;5094077;28;20385;-74
2022/05/22 01:21:30;;;;;;;9.25;3.33;;;;;;;23.49;40.41;101114.06;5112551;28;20042;-74
2022/05/22 01:23:56;;;;;;;8.13;3.33;;;;;;;23.57;40.34;101107.31;5111582;28;20022;-73
2022/05/22 01:26:24;;;;;;;8.40;2.95;;;;;;;23.47;40.65;101102.50;5092160;28;20075;-74
2022/05/22 01:28:50;;;;;;;10.15;3.40;;;;;;;23.61;40.20;101096.22;5092088;28;20487;-74
2022/05/22 01:31:17;;;;;;;8.73;3.05;;;;;;;23.67;40.40;101101.03;5092048;28;20035;-74
2022/05/22 01:33:43;;;;;;;6.90;2.83;;;;;;;23.77;40.07;101100.25;5091996;28;20498;-74
2022/05/22 01:36:09;;;;;;;6.82;3.47;;;;;;;23.66;40.36;101091.06;5110582;28;20084;-74
2022/05/22 01:38:37;;;;;;;4.97;2.40;;;;;;;23.49;40.73;101089.75;5094114;28;20051;-73
2022/05/22 01:41:03;;;;;;;4.90;2.80;;;;;;;23.40;41.28;101085.75;5112209;28;20535;-73
2022/05/22 01:43:29;;;;;;;9.07;3.08;;;;;;;23.37;41.32;101086.53;5112246;28;20123;-73
2022/05/22 01:45:55;;;;;;;5.93;2.78;;;;;;;23.38;41.07;101079.78;5095302;28;20501;-73
2022/05/22 01:48:22;;;;;;;6.90;3.33;;;;;;;23.31;41.30;101074.16;5091652;28;20020;-74
2022/05/22 01:50:48;;;;;;;8.30;2.75;;;;;;;23.18;41.84;101076.50;5091498;28;20380;-74
2022/05/22 01:53:14;;;;;;;8.38;3.17;;;;;;;23.18;41.65;101074.50;5073573;28;20030;-73
2022/05/22 01:55:41;;;;;;;8.43;3.75;;;;;;;23.23;41.68;101070.56;5073820;28;20085;-73
2022/05/22 01:58:07;;;;;;;7.70;3.33;;;;;;;23.23;41.79;101071.34;5091570;28;20493;-72
2022/05/22 02:00:33;;;;;;;8.57;3.53;;;;;;;23.32;41.62;101067.41;5073221;28;20098;-73
2022/05/22 02:03:00;;;;;;;6.57;3.05;;;;;;;23.35;41.62;101064.63;5091473;28;20048;-72
2022/05/22 02:05:26;;;;;;;8.40;2.75;;;;;;;23.41;41.57;101071.41;5103216;28;20023;-77
2022/05/22 02:10:37;;;;;;;8.52;3.35;;;;;;;23.35;42.16;101050.69;5112031;28;20046;-73
2022/05/22 02:13:04;;;;;;;8.00;3.00;;;;;;;23.31;42.21;101049.88;5087402;28;20020;-73
2022/05/22 02:15:30;;;;;;;7.70;3.50;;;;;;;23.10;42.82;101049.78;5108283;28;20027;-74
2022/05/22 02:17:56;;;;;;;7.82;2.67;;;;;;;23.18;42.82;101043.84;5093453;28;20034;-73
2022/05/22 02:20:23;;;;;;;8.65;3.35;;;;;;;23.41;42.08;101048.31;5111337;28;20027;-74
2022/05/22 02:22:52;;;;;;;7.10;3.00;;;;;;;23.37;42.49;101044.72;5111531;28;20032;-74
2022/05/22 02:25:31;;;;;;;8.20;2.63;;;;;;;23.39;42.48;101040.34;5078342;28;20028;-74
2022/05/22 02:27:58;;;;;;;6.05;2.95;;;;;;;23.45;41.96;101041.56;5090873;28;20634;-73
2022/05/22 02:30:28;;;;;;;8.85;2.45;;;;;;;23.44;42.35;101048.34;5091038;28;20055;-73
2022/05/22 02:32:54;;;;;;;6.05;3.03;;;;;;;23.44;42.02;101048.34;5091105;28;20135;-73
2022/05/22 02:35:21;;;;;;;6.85;3.20;;;;;;;23.39;42.67;101042.34;5105533;28;20027;-73
2022/05/22 02:37:55;;;;;;;4.55;2.50;;;;;;;23.32;42.76;101028.38;5111374;28;20490;-74
2022/05/22 02:40:24;;;;;;;9.80;3.25;;;;;;;23.49;42.54;101028.41;5111259;28;20513;-73
2022/05/22 02:42:51;;;;;;;6.05;2.45;;;;;;;23.49;42.29;101027.63;5110657;28;20031;-74
2022/05/22 02:45:20;;;;;;;5.38;3.08;;;;;;;23.55;42.02;101023.25;5096940;28;20526;-74
2022/05/22 02:47:47;;;;;;;6.37;3.47;;;;;;;23.51;42.18;101016.88;5090993;28;20024;-73
2022/05/22 02:50:19;;;;;;;4.68;2.80;;;;;;;23.40;42.12;101013.25;5090444;28;20288;-73
2022/05/22 02:52:45;;;;;;;4.70;2.63;;;;;;;23.32;42.32;101011.63;5090873;28;20024;-74
2022/05/22 02:55:11;;;;;;;7.80;3.25;;;;;;;23.23;42.59;101012.81;5073784;28;20024;-73
2022/05/22 02:57:39;;;;;;;7.40;2.97;;;;;;;23.12;42.94;101009.16;5090751;28;20028;-74
2022/05/22 03:00:09;;;;;;;4.50;2.60;;;;;;;23.14;42.79;101006.00;5090569;28;20020;-74
2022/05/22 03:02:34;;;;;;;8.00;2.40;;;;;;;23.14;42.43;101004.00;5090603;28;20055;-73
2022/05/22 03:05:00;;;;;;;6.68;2.85;;;;;;;23.21;42.45;101000.47;5102400;28;20055;-78
2022/05/22 03:07:26;;;;;;;8.13;3.08;;;;;;;23.06;43.05;101005.19;5110561;28;20032;-73
2022/05/22 03:09:51;;;;;;;5.43;3.00;;;;;;;23.17;42.64;100996.84;5111022;28;20034;-73
2022/05/22 03:12:20;;;;;;;7.18;3.10;;;;;;;23.15;42.59;100988.88;5110952;28;20521;-73
2022/05/22 03:14:49;;;;;;;6.43;3.15;;;;;;;23.10;42.77;100992.03;5100988;28;20039;-73
2022/05/22 03:17:14;;;;;;;8.07;3.53;;;;;;;23.12;42.76;100998.00;5090629;28;20032;-73
2022/05/22 03:19:40;;;;;;;5.97;2.65;;;;;;;23.22;42.43;100988.91;5090532;28;20606;-74
2022/05/22 03:22:07;;;;;;;5.60;3.20;;;;;;;23.13;42.53;100994.06;5090613;28;20533;-73
2022/05/22 03:24:34;;;;;;;7.55;2.30;;;;;;;23.02;43.12;100987.63;5097963;28;20016;-74
2022/05/22 03:27:15;;;;;;;6.63;2.25;;;;;;;23.01;43.07;100999.19;5110721;28;20461;-74
2022/05/22 03:29:42;;;;;;;7.85;3.30;;;;;;;23.13;42.49;100985.69;5110885;28;20030;-74
2022/05/22 03:32:09;;;;;;;7.63;2.70;;;;;;;22.92;43.11;100983.63;5110737;28;20447;-74
2022/05/22 03:34:35;;;;;;;9.05;2.92;;;;;;;23.07;42.86;100984.47;5103270;28;20036;-74
2022/05/22 03:37:00;;;;;;;5.85;2.63;;;;;;;23.11;42.73;100984.47;5090377;28;20020;-74
2022/05/22 03:39:27;;;;;;;5.05;2.75;;;;;;;23.17;42.40;100982.91;5092920;28;20028;-74
2022/05/22 03:41:53;;;;;;;7.35;2.33;;;;;;;23.15;42.86;100974.16;5094197;28;20030;-74
2022/05/22 03:44:19;;;;;;;10.60;3.22;;;;;;;22.97;43.09;100968.50;5098549;28;20463;-73
2022/05/22 03:46:45;;;;;;;7.38;2.60;;;;;;;23.07;43.06;100972.53;5114534;28;20065;-73
2022/05/22 03:49:11;;;;;;;4.20;2.80;;;;;;;23.19;42.84;100970.16;5095858;28;20435;-74
2022/05/22 03:51:38;;;;;;;6.97;2.70;;;;;;;23.17;42.92;100961.41;5114416;28;20028;-74
2022/05/22 03:54:03;;;;;;;5.38;2.45;;;;;;;23.18;42.85;100956.63;5112026;28;20062;-74
2022/05/22 03:56:29;;;;;;;5.05;2.40;;;;;;;23.25;42.93;100953.88;5093988;28;20063;-75
2022/05/22 03:58:55;;;;;;;5.18;2.33;;;;;;;23.22;43.03;100958.25;5093886;28;20123;-74
2022/05/22 04:01:20;;;;;;;5.22;2.17;;;;;;;23.19;43.27;100952.66;5093773;28;20116;-73
2022/05/22 04:03:46;;;;;;;3.78;2.03;;;;;;;23.17;43.22;100950.25;5097095;28;20080;-74
2022/05/22 04:06:12;;;;;;;7.65;2.70;;;;;;;23.13;43.07;100954.25;5114115;28;20470;-74
2022/05/22 04:08:39;;;;;;;6.40;3.00;;;;;;;23.19;42.95;100950.66;5114072;28;20397;-75
2022/05/22 04:11:13;;;;;;;4.72;2.10;;;;;;;23.19;43.20;100950.66;5114073;28;20124;-74
2022/05/22 04:13:39;;;;;;;6.05;2.78;;;;;;;23.16;43.11;100950.66;5111437;28;20031;-74
2022/05/22 04:16:05;;;;;;;8.88;2.50;;;;;;;23.13;43.20;100955.03;5093424;28;20474;-74
2022/05/22 04:18:31;;;;;;;16.52;3.40;;;;;;;23.13;43.47;100957.84;5094409;28;20190;-73
2022/05/22 04:20:57;;;;;;;4.85;2.38;;;;;;;23.26;42.79;100952.66;5094181;28;20378;-74
2022/05/22 04:26:08;;;;;;;4.35;2.30;;;;;;;23.28;42.85;100944.72;5114617;28;20078;-74
2022/05/22 04:28:34;;;;;;;5.47;2.35;;;;;;;23.35;43.00;100947.53;5114541;28;20046;-74
2022/05/22 04:31:03;;;;;;;4.63;2.30;;;;;;;23.42;43.06;100946.72;5114281;28;20507;-74
2022/05/22 04:33:29;;;;;;;3.85;2.28;;;;;;;23.34;42.85;100940.34;5114041;28;20484;-74
2022/05/22 04:35:55;;;;;;;4.20;2.10;;;;;;;23.41;42.66;100942.34;5093966;28;20103;-76
2022/05/22 04:38:21;;;;;;;9.25;2.65;;;;;;;23.43;42.61;100940.78;5093992;28;20371;-73
2022/05/22 04:40:55;;;;;;;4.75;2.33;;;;;;;23.41;43.19;100942.34;5093813;28;20107;-74
2022/05/22 04:43:21;;;;;;;8.40;3.05;;;;;;;23.44;42.73;100930.41;5093931;28;20020;-74
2022/05/22 04:45:46;;;;;;;5.00;2.60;;;;;;;23.52;42.92;100932.81;5112910;28;20023;-74
2022/05/22 04:48:12;;;;;;;6.90;2.90;;;;;;;23.47;43.23;100937.97;5095992;28;20110;-73
2022/05/22 04:50:38;;;;;;;6.60;2.65;;;;;;;23.56;42.72;100930.03;5075217;28;20056;-74
2022/05/22 04:53:04;;;;;;;5.13;2.30;;;;;;;23.45;43.20;100929.22;5072236;28;20033;-78
2022/05/22 04:55:29;;;;;;;5.68;2.45;;;;;;;23.34;43.39;100925.59;5057046;28;20036;-74
2022/05/22 04:57:55;;;;;;;7.63;2.53;;;;;;;23.52;43.18;100932.81;5056102;28;20078;-73
2022/05/22 05:00:21;;;;;;;9.27;3.42;;;;;;;23.53;42.94;100928.81;5051762;28;20021;-73
2022/05/22 05:02:47;;;;;;;4.60;2.70;;;;;;;23.47;43.01;100924.03;5053362;28;20029;-74
2022/05/22 05:05:13;;;;;;;6.40;3.03;;;;;;;23.58;42.84;100919.28;5070486;28;20084;-78
2022/05/22 05:07:41;;;;;;;6.75;2.90;;;;;;;23.66;42.71;100928.47;5072694;28;20017;-74
2022/05/22 05:10:11;;;;;;;6.93;2.58;;;;;;;23.68;43.05;100929.66;5073199;28;20033;-74
2022/05/22 05:12:40;;;;;;;5.18;2.53;;;;;;;23.62;42.98;100931.25;5073072;28;20044;-74
2022/05/22 05:15:10;;;;;;;9.05;2.95;;;;;;;23.59;43.39;100928.44;5056446;28;20043;-73
2022/05/22 05:17:36;;;;;;;8.68;2.78;;;;;;;23.76;43.01;100931.25;5052451;28;20471;-73
2022/05/22 05:20:01;;;;;;;5.30;2.25;;;;;;;23.83;42.45;100922.09;5052819;28;20040;-74
2022/05/22 05:22:30;;;;;;;6.05;2.38;;;;;;;23.75;43.05;100918.50;5051602;28;20044;-74
2022/05/22 05:24:56;;;;;;;5.78;2.33;;;;;;;23.94;42.61;100919.28;5065265;28;20111;-74
2022/05/22 05:27:21;;;;;;;4.82;2.20;;;;;;;23.80;42.65;100904.19;5072873;28;20158;-73
2022/05/22 05:29:47;;;;;;;2.97;1.95;;;;;;;23.65;43.26;100910.91;5072812;28;20028;-73
2022/05/22 05:32:17;;;;;;;5.38;2.22;;;;;;;23.86;42.99;100910.13;5071486;28;20025;-74
2022/05/22 05:34:43;;;;;;;2.90;1.60;;;;;;;23.96;42.63;100905.75;5060064;28;20116;-74
2022/05/22 05:37:08;;;;;;;3.92;2.13;;;;;;;24.06;42.45;100896.56;5052667;28;20162;-74
2022/05/22 05:39:35;;;;;;;3.90;2.30;;;;;;;24.04;42.58;100893.38;5052541;28;20040;-73
2022/05/22 05:42:01;;;;;;;2.97;1.83;;;;;;;24.19;42.04;100896.94;5052755;28;20369;-76
2022/05/22 05:44:27;;;;;;;6.00;1.92;;;;;;;24.21;42.37;100898.13;5060818;28;20036;-73
2022/05/22 05:46:52;;;;;;;4.10;1.90;;;;;;;24.08;42.60;100897.75;5071170;28;20101;-73
2022/05/22 05:49:18;;;;;;;2.88;1.63;;;;;;;24.23;42.52;100880.97;5083323;28;20104;-74
2022/05/22 05:51:44;;;;;;;3.63;1.90;;;;;;;24.27;42.63;100893.72;5112957;28;20562;-74
2022/05/22 05:54:09;;;;;;;5.03;2.15;;;;;;;24.34;42.27;100879.78;5105263;28;20058;-79
2022/05/22 05:56:39;;;;;;;4.20;1.77;;;;;;;24.27;42.57;100874.19;5092610;28;20024;-74
2022/05/22 05:59:05;;;;;;;;;;;;;;;24.39;42.17;100872.19;5092910;28;20055;-73
2022/05/22 06:01:33;;;;;;;2.47;1.52;;;;;;;24.51;42.21;100880.13;5091568;28;20322;-73
2022/05/22 06:03:59;;;;;;;4.13;1.50;;;;;;;24.53;42.08;100875.72;5101689;28;20027;-72
2022/05/22 06:06:25;;;;;;;2.28;1.55;;;;;;;24.63;42.25;100882.44;5112331;28;20027;-73
2022/05/22 06:08:52;;;;;;;11.60;1.83;;;;;;;24.56;42.17;100886.09;5112586;28;20034;-73
2022/05/22 06:11:18;;;;;;;3.33;1.48;;;;;;;24.68;41.94;100889.63;5112627;28;20039;-72
2022/05/22 06:13:44;;;;;;;6.50;1.70;;;;;;;24.69;42.14;100886.41;5105344;28;20032;-72
2022/05/22 06:16:09;;;;;;;7.68;2.33;;;;;;;24.58;42.39;100877.31;5091959;28;20408;-72
2022/05/22 06:18:35;;;;;;;6.28;1.55;;;;;;;24.53;42.42;100883.28;5092026;28;20099;-73
2022/05/22 06:21:09;;;;;;;3.60;1.45;;;;;;;24.46;42.53;100878.53;5092180;28;20124;-73
2022/05/22 06:23:34;;;;;;;5.28;1.60;;;;;;;24.39;42.85;100878.56;5092321;28;20028;-73
2022/05/22 06:26:00;;;;;;;3.72;1.45;;;;;;;24.46;42.89;100889.69;5092061;28;20520;-73
2022/05/22 06:28:25;;;;;;;3.75;1.27;;;;;;;24.37;42.92;100896.94;5092000;28;20077;-74
2022/05/22 06:30:52;;;;;;;2.80;1.38;;;;;;;24.18;43.46;100904.53;5081048;28;20500;-74
2022/05/22 06:33:17;;;;;;;4.13;1.35;;;;;;;23.95;43.29;100899.34;5112102;28;20066;-74
2022/05/22 06:35:44;;;;;;;2.95;1.20;;;;;;;23.08;45.30;100896.09;5112218;28;20063;-74
2022/05/22 06:40:54;;;;;;;4.20;1.58;;;;;;;23.38;44.27;100904.13;5099230;28;20034;-74
2022/05/22 06:43:20;;;;;;;5.00;1.70;;;;;;;23.49;43.71;100910.50;5112087;28;20107;-74
2022/05/22 06:45:48;;;;;;;2.70;1.10;;;;;;;23.30;44.47;100911.66;5112099;28;20057;-78
2022/05/22 06:48:14;;;;;;;2.85;1.52;;;;;;;22.92;45.16;100907.59;5112114;28;20115;-75
2022/05/22 06:50:40;;;;;;;3.25;1.30;;;;;;;23.09;44.62;100892.13;5106217;28;20465;-74
2022/05/22 06:53:06;;;;;;;7.88;1.40;;;;;;;22.89;45.14;100895.22;5091354;28;20097;-74
2022/05/22 06:55:31;;;;;;;5.57;2.50;;;;;;;22.83;45.54;100893.22;5091567;28;20111;-74
2022/05/22 06:57:58;;;;;;;6.32;1.88;;;;;;;23.02;44.86;100897.66;5073361;28;20122;-74
2022/05/22 07:00:23;;;;;;;6.57;1.63;;;;;;;22.92;45.30;100899.25;5094092;28;20210;-74
2022/05/22 07:02:52;;;;;;;5.00;2.10;;;;;;;22.59;45.69;100895.47;5112024;28;20513;-74
2022/05/22 07:05:18;;;;;;;10.98;2.22;;;;;;;22.88;44.80;100882.50;5093454;28;20111;-74
2022/05/22 07:07:48;;;;;;;10.40;1.88;;;;;;;22.95;44.46;100893.66;5111557;28;20407;-74
2022/05/22 07:10:14;;;;;;;9.50;2.60;;;;;;;22.93;44.20;100898.03;5110471;28;20063;-79
2022/05/22 07:12:40;;;;;;;8.50;2.72;;;;;;;23.12;43.83;100886.53;5092956;28;20421;-77
2022/05/22 07:15:07;;;;;;;8.45;3.92;;;;;;;23.28;43.65;100891.75;5095538;28;20039;-76
2022/05/22 07:17:33;;;;;;;10.25;2.53;;;;;;;23.32;43.23;100889.75;5095573;28;20031;-74
2022/05/22 07:19:59;;;;;;;3.60;1.73;;;;;;;23.39;43.08;100894.56;5095339;28;20436;-74
2022/05/22 07:22:25;;;;;;;7.95;2.20;;;;;;;23.39;42.96;100895.34;5114567;28;20023;-73
2022/05/22 07:24:52;;;;;;;4.55;2.25;;;;;;;23.46;43.02;100884.19;5115734;28;20019;-74
2022/05/22 07:27:18;;;;;;;6.32;2.15;;;;;;;23.47;42.96;100882.22;5097435;28;20028;-74
2022/05/22 07:29:44;;;;;;;11.23;3.22;;;;;;;23.52;43.08;100881.81;5115612;28;20027;-74
2022/05/22 07:32:10;;;;;;;7.30;2.25;;;;;;;23.52;43.37;100870.66;5098782;28;20463;-75
2022/05/22 07:34:38;;;;;;;8.77;2.58;;;;;;;23.60;42.99;100874.25;5077185;28;20028;-74
2022/05/22 07:37:13;;;;;;;7.93;2.35;;;;;;;23.67;43.04;100875.09;5104643;28;20459;-75
2022/05/22 07:39:39;;;;;;;6.68;2.30;;;;;;;23.70;43.39;100871.47;5086191;28;20100;-79
2022/05/22 07:42:05;;;;;;;6.47;1.80;;;;;;;23.84;43.21;100864.31;5115479;28;20040;-74
2022/05/22 07:44:31;;;;;;;7.05;2.97;;;;;;;23.73;43.32;100867.13;5097716;28;20027;-79
2022/05/22 07:46:57;;;;;;;8.63;2.72;;;;;;;23.95;42.54;100860.28;5115417;28;20387;-74
2022/05/22 07:52:09;;;;;;;7.90;2.72;;;;;;;24.19;42.27;100843.91;5116288;28;20104;-80
2022/05/22 07:54:39;;;;;;;7.72;2.08;;;;;;;24.44;41.79;100844.63;5095772;28;20494;-81
2022/05/22 07:57:06;;;;;;;7.78;2.60;;;;;;;24.58;41.30;100825.03;5105598;28;20165;-74
2022/05/22 07:59:38;;;;;;;4.47;1.52;;;;;;;24.45;41.71;100831.47;5115852;28;20028;-74
2022/05/22 08:02:08;;;;;;;7.80;2.25;;;;;;;24.67;41.58;100832.97;5115293;28;20106;-74
2022/05/22 08:04:33;;;;;;;7.75;2.08;;;;;;;24.77;41.04;100828.50;5115381;28;20024;-79
2022/05/22 08:06:59;;;;;;;7.38;1.73;;;;;;;24.72;41.19;100829.75;5114618;28;20026;-75
2022/05/22 08:09:25;;;;;;;9.45;2.58;;;;;;;24.69;41.34;100841.72;5115739;28;20507;-74
2022/05/22 08:11:51;;;;;;;4.28;1.92;;;;;;;24.75;40.91;100828.91;5115368;28;20406;-80
2022/05/22 08:14:18;;;;;;;7.38;2.45;;;;;;;24.63;41.24;100837.75;5115277;28;20466;-74
2022/05/22 08:16:43;;;;;;;9.25;2.17;;;;;;;24.76;41.13;100835.28;5114658;28;20016;-79
2022/05/22 08:19:09;;;;;;;6.60;1.95;;;;;;;24.76;40.58;100822.13;5115307;28;20099;-76
2022/05/22 08:21:35;;;;;;;9.18;2.03;;;;;;;24.65;40.97;100820.59;5115671;28;20073;-75
2022/05/22 08:24:00;;;;;;;7.43;2.40;;;;;;;24.82;40.31;100826.09;5114341;28;20032;-80
2022/05/22 08:26:27;;;;;;;6.85;2.53;;;;;;;24.78;40.48;100827.28;5115523;28;20080;-81
2022/05/22 08:28:53;;;;;;;5.90;2.58;;;;;;;24.71;40.92;100822.56;5114695;28;20028;-74
2022/05/22 08:31:18;;;;;;;7.03;2.13;;;;;;;24.90;40.48;100822.03;5109805;28;20575;-80
2022/05/22 08:33:44;;;;;;;7.97;2.85;;;;;;;24.99;40.64;100818.00;5099676;28;20050;-74
2022/05/22 08:36:10;;;;;;;6.63;2.15;;;;;;;25.00;40.66;100806.41;5097770;28;20434;-74
2022/05/22 08:38:35;;;;;;;6.93;2.22;;;;;;;25.18;40.34;100798.72;5095017;28;20531;-74
2022/05/22 08:41:21;;;;;;;5.72;2.42;;;;;;;25.30;39.81;100796.63;5094727;28;20028;-74
2022/05/22 08:43:52;;;;;;;9.23;2.42;;;;;;;25.51;39.83;100801.22;5094921;28;20530;-73
2022/05/22 08:46:23;;;;;;;7.00;2.10;;;;;;;25.48;39.53;100794.47;5108739;28;20032;-78
2022/05/22 08:48:56;;;;;;;8.55;2.30;;;;;;;25.73;39.05;100774.66;5114938;28;20081;-73
2022/05/22 08:51:45;;;;;;;5.90;1.63;;;;;;;25.88;38.68;100773.31;5115080;28;20080;-73
2022/05/22 08:54:26;;;;;;;15.40;3.13;;;;;;;25.70;38.65;100772.69;5110108;28;20036;-73
2022/05/22 08:59:41;;;;;;;17.67;3.75;;;;;;;25.92;38.26;100768.47;5105955;28;20031;-73
2022/05/22 09:02:12;;;;;;;11.05;2.20;;;;;;;26.11;38.10;100772.63;5094443;28;20016;-73
2022/05/22 09:04:51;;;;;;;8.18;2.22;;;;;;;26.32;37.56;100777.19;5099401;28;20398;-73
2022/05/22 09:07:38;;;;;;;14.27;3.10;;;;;;;26.27;37.58;100774.84;5094356;28;20073;-79
2022/05/22 09:10:07;;;;;;;7.57;2.45;;;;;;;26.30;37.54;100782.41;5094271;28;20102;-81
2022/05/22 09:12:56;;;;;;;5.85;2.58;;;;;;;26.30;36.82;100782.41;5076013;28;20024;-79
2022/05/22 09:15:46;;;;;;;2.75;1.38;;;;;;;26.18;36.77;100777.34;5100354;28;20436;-75
2022/05/22 09:18:26;;;;;;;;;;;;;;;26.10;37.15;100776.66;5114899;28;20065;-80
2022/05/22 09:21:01;;;;;;;16.00;3.17;;;;;;;26.24;37.27;100765.28;5114371;28;20384;-74
2022/05/22 09:23:38;;;;;;;6.95;2.08;;;;;;;26.31;37.01;100767.19;5107868;28;20036;-74
2022/05/22 09:26:31;;;;;;;7.97;1.83;;;;;;;26.35;36.83;100762.31;5094081;28;20020;-74
2022/05/22 09:29:18;;;;;;;5.90;1.75;;;;;;;26.38;36.35;100755.09;5082718;28;20479;-73
2022/05/22 09:32:05;;;;;;;6.68;1.85;;;;;;;26.49;35.60;100745.34;5075678;28;20389;-73
2022/05/22 09:34:49;;;;;;;11.90;2.33;;;;;;;26.42;35.93;100753.84;5075685;28;20035;-74
2022/05/22 09:37:38;;;;;;;10.70;2.30;;;;;;;26.55;35.39;100742.88;5093757;28;20051;-74
2022/05/22 09:40:13;;;;;;;5.95;1.48;;;;;;;26.78;34.87;100747.75;5093676;28;20035;-77
2022/05/22 09:42:57;;;;;;;14.18;2.83;;;;;;;26.96;34.66;100742.63;5093546;28;20026;-74
2022/05/22 09:45:41;;;;;;;8.90;2.38;;;;;;;27.08;34.39;100728.06;5099200;28;20152;-74
2022/05/22 09:48:20;;;;;;;9.25;2.38;;;;;;;27.19;34.17;100725.06;5114130;28;20026;-75
2022/05/22 09:51:02;;;;;;;10.25;2.35;;;;;;;27.30;33.99;100727.69;5113746;28;20127;-79
2022/05/22 09:53:58;;;;;;;10.82;2.40;;;;;;;27.20;34.30;100721.03;5112204;28;20074;-74
2022/05/22 09:56:46;;;;;;;10.15;2.25;;;;;;;27.12;34.55;100718.78;5113043;28;20482;-73
2022/05/22 09:59:30;;;;;;;9.68;2.50;;;;;;;27.31;34.36;100720.84;5073910;28;20036;-72
2022/05/22 10:02:02;;;;;;;4.45;1.55;;;;;;;27.48;34.11;100721.75;5111753;28;20027;-74
2022/05/22 10:04:46;;;;;;;7.35;1.90;;;;;;;27.62;33.76;100716.66;5112738;28;20035;-77
2022/05/22 10:07:43;;;;;;;7.00;2.40;;;;;;;27.19;33.65;100713.03;5094870;28;20034;-82
2022/05/22 10:10:30;;;;;;;11.30;2.65;;;;;;;27.54;34.10;100720.03;5110462;28;20543;-85
2022/05/22 10:13:00;;;;;;;6.35;1.73;;;;;;;27.59;33.77;100713.94;5093711;28;20389;-76
2022/05/22 10:15:30;;;;;;;5.85;2.33;;;;;;;27.47;33.96;100712.53;5094123;28;20449;-76
2022/05/22 10:18:21;;;;;;;6.53;2.03;;;;;;;27.59;33.64;100695.06;5112142;28;20024;-81
2022/05/22 10:21:02;;;;;;;11.95;3.22;;;;;;;27.67;33.67;100692.94;5093095;28;20085;-80
2022/05/22 10:23:40;;;;;;;11.73;2.45;;;;;;;27.31;33.28;100704.81;5111093;28;20032;-78
2022/05/22 10:26:13;;;;;;;4.35;1.77;;;;;;;27.43;33.10;100699.78;5093689;28;20018;-82
2022/05/22 10:28:47;;;;;;;8.50;2.65;;;;;;;27.34;33.04;100680.72;5093865;28;20422;-78
2022/05/22 10:31:19;;;;;;;11.88;2.35;;;;;;;27.51;33.03;100676.00;5109206;28;20027;-77
2022/05/22 10:34:12;;;;;;;11.65;2.80;;;;;;;27.71;32.80;100679.63;5094293;28;20086;-80
2022/05/22 10:36:47;;;;;;;8.20;1.65;;;;;;;28.14;32.66;100673.09;5107800;28;20062;-76
2022/05/22 10:39:14;;;;;;;5.78;1.40;;;;;;;28.11;32.63;100673.94;5093733;28;20054;-78
2022/05/22 10:44:52;;;;;;;6.40;2.15;;;;;;;28.31;31.57;100666.31;5092794;28;20085;-80
2022/05/22 10:47:34;;;;;;;12.82;3.53;;;;;;;28.46;31.57;100672.38;5098573;28;20077;-79
2022/05/22 10:50:12;;;;;;;13.80;3.30;;;;;;;28.54;31.45;100651.31;5111927;28;20047;-78
2022/05/22 10:52:37;;;;;;;8.40;2.30;;;;;;;28.68;31.60;100656.59;5111806;28;20110;-77
2022/05/22 10:55:15;;;;;;;6.05;2.40;;;;;;;28.56;31.28;100646.03;5108656;28;20123;-81
2022/05/22 10:57:41;;;;;;;10.10;2.83;;;;;;;28.78;30.96;100631.44;5112623;28;20027;-77
2022/05/22 11:00:15;;;;;;;15.60;4.15;;;;;;;28.80;30.68;100631.81;5112902;28;20065;-78
2022/05/22 11:02:40;;;;;;;9.13;2.00;;;;;;;28.49;31.08;100637.81;5112851;28;20073;-77
2022/05/22 11:05:40;;;;;;;11.27;2.72;;;;;;;28.69;30.89;100630.06;5094256;28;20876;-77
2022/05/22 11:08:05;;;;;;;7.00;2.15;;;;;;;28.65;31.08;100632.19;5098762;28;20539;-78
2022/05/22 11:10:38;;;;;;;9.52;2.95;;;;;;;28.54;31.13;100630.84;5094153;28;20070;-77
2022/05/22 11:13:12;;;;;;;10.05;2.10;;;;;;;28.42;31.41;100627.53;5092089;28;20080;-77
2022/05/22 11:15:42;;;;;;;9.32;2.42;;;;;;;28.23;31.57;100617.09;5108498;28;20059;-79
2022/05/22 11:18:12;;;;;;;;;;;;;;;28.25;31.26;100617.44;5112391;28;20111;-77
2022/05/22 11:20:48;;;;;;;8.85;2.75;;;;;;;28.47;30.96;100617.75;5111652;28;19916;-81
2022/05/22 11:23:20;;;;;;;7.47;2.53;;;;;;;28.58;31.08;100612.69;5112001;28;20031;-77
2022/05/22 11:26:16;;;;;;;17.58;2.80;;;;;;;28.74;31.17;100615.47;5112109;28;20030;-78
2022/05/22 11:29:02;;;;;;;12.18;2.88;;;;;;;28.91;30.80;100613.47;5097838;28;20107;-81
2022/05/22 11:31:49;;;;;;;9.05;2.65;;;;;;;28.98;31.04;100610.44;5089295;28;20035;-78
2022/05/22 11:34:42;;;;;;;10.52;1.88;;;;;;;28.84;30.89;100602.34;5112057;28;20031;-78
2022/05/22 11:37:39;;;;;;;6.38;2.10;;;;;;;28.92;30.87;100609.41;5112314;28;20042;-78
2022/05/22 11:40:24;;;;;;;4.68;1.77;;;;;;;28.82;30.87;100604.03;5112540;28;20482;-78
2022/05/22 11:43:02;;;;;;;14.90;3.25;;;;;;;28.78;30.41;100609.75;5112466;28;20020;-78
2022/05/22 11:45:36;;;;;;;12.38;3.45;;;;;;;28.95;30.22;100608.53;5094339;28;20080;-80
2022/05/22 11:48:23;;;;;;;7.45;1.88;;;;;;;28.73;30.52;100596.25;5112520;28;20102;-78
2022/05/22 11:51:20;;;;;;;10.48;2.85;;;;;;;28.60;30.53;100592.56;5093147;28;20048;-77
2022/05/22 11:53:54;;;;;;;10.23;2.67;;;;;;;28.82;30.77;100587.16;5085198;28;20027;-77